Time;durP1;ratioP1;P1;durP2;ratioP2;P2;SDS_P1;SDS_P2;PMS_P1;PMS_P2;Temp;Humidity;BMP_temperature;BMP_pressure;BME280_temperature;BME280_humidity;BME280_pressure;Samples;Min_cycle;Max_cycle;Signal;HPM_P1;HPM_P2
2021/06/21 00:00:44;;;;;;;8.95;4.50;;;;;;;20.03;100.00;99418.66;5021989;28;20045;-59
2021/06/21 00:03:11;;;;;;;7.97;4.03;;;;;;;19.94;100.00;99425.81;5018652;28;20057;-59
2021/06/21 00:05:37;;;;;;;7.82;3.80;;;;;;;19.90;100.00;99429.78;5016144;28;20050;-57
2021/06/21 00:08:04;;;;;;;6.03;3.13;;;;;;;19.83;100.00;99426.06;5016567;28;20061;-58
2021/06/21 00:10:31;;;;;;;5.07;2.72;;;;;;;19.88;100.00;99432.63;5015902;28;20076;-60
2021/06/21 00:12:58;;;;;;;7.07;3.10;;;;;;;19.90;100.00;99444.06;5017361;28;20057;-59
2021/06/21 00:15:25;;;;;;;6.57;2.50;;;;;;;19.95;100.00;99449.84;5024828;28;20059;-60
2021/06/21 00:17:52;;;;;;;8.02;2.58;;;;;;;19.93;100.00;99457.22;5022822;28;20053;-58
2021/06/21 00:20:20;;;;;;;7.18;2.63;;;;;;;19.86;100.00;99456.13;5026473;28;20046;-58
2021/06/21 00:22:47;;;;;;;6.38;2.30;;;;;;;19.87;100.00;99439.00;5024665;28;20055;-59
2021/06/21 00:25:15;;;;;;;4.47;2.20;;;;;;;19.88;100.00;99446.06;5023733;28;20520;-59
2021/06/21 00:27:42;;;;;;;5.90;2.30;;;;;;;19.90;100.00;99445.91;5032057;28;20084;-59
2021/06/21 00:30:11;;;;;;;4.97;2.42;;;;;;;19.96;100.00;99451.53;5024030;28;20041;-60
2021/06/21 00:32:40;;;;;;;6.72;3.63;;;;;;;20.08;100.00;99452.13;5016519;28;20053;-60
2021/06/21 00:35:07;;;;;;;9.55;5.07;;;;;;;20.08;100.00;99451.28;5021363;28;20050;-60
2021/06/21 00:37:34;;;;;;;11.95;7.03;;;;;;;19.96;100.00;99462.28;5028723;28;20539;-59
2021/06/21 00:40:03;;;;;;;10.73;6.63;;;;;;;19.88;100.00;99458.66;5022112;28;20054;-59
2021/06/21 00:42:31;;;;;;;11.68;6.72;;;;;;;19.95;100.00;99449.84;5021974;28;20523;-56
2021/06/21 00:44:58;;;;;;;15.15;6.72;;;;;;;19.94;99.09;99441.94;5026625;28;20056;-57
2021/06/21 00:47:24;;;;;;;11.05;5.80;;;;;;;19.90;99.63;99436.00;5025733;28;20424;-56
2021/06/21 00:49:51;;;;;;;11.60;5.90;;;;;;;19.83;100.00;99437.63;5026036;28;20053;-58
2021/06/21 00:52:21;;;;;;;8.98;5.65;;;;;;;19.82;100.00;99429.75;5029956;28;20045;-57
2021/06/21 00:54:59;;;;;;;8.95;5.00;;;;;;;19.82;100.00;99433.28;5020118;28;20046;-58
2021/06/21 00:57:30;;;;;;;11.30;4.50;;;;;;;19.78;99.49;99421.13;5033922;28;20469;-61
2021/06/21 00:59:59;;;;;;;8.73;4.15;;;;;;;19.79;99.57;99411.25;5028091;28;20231;-58
2021/06/21 01:02:27;;;;;;;5.85;3.83;;;;;;;19.74;99.76;99402.78;5032796;28;20049;-59
2021/06/21 01:04:55;;;;;;;9.15;3.55;;;;;;;19.72;100.00;99405.63;5030613;28;20057;-59
2021/06/21 01:07:22;;;;;;;11.70;3.38;;;;;;;19.73;98.15;99409.16;5026161;28;20811;-59
2021/06/21 01:09:54;;;;;;;9.43;2.88;;;;;;;19.65;98.55;99404.56;5027191;28;20053;-57
2021/06/21 01:12:48;;;;;;;10.35;3.38;;;;;;;19.63;98.80;99406.56;5024092;28;20045;-60
2021/06/21 01:15:16;;;;;;;9.43;2.65;;;;;;;19.55;99.00;99418.06;5015428;28;20156;-60
2021/06/21 01:17:54;;;;;;;10.10;2.83;;;;;;;19.45;98.19;99398.47;5028986;28;20053;-58
2021/06/21 01:20:35;;;;;;;11.95;2.50;;;;;;;19.41;99.67;99401.59;5025633;28;20279;-60
2021/06/21 01:23:14;;;;;;;9.23;2.30;;;;;;;19.28;98.81;99410.03;5022396;28;20053;-60
2021/06/21 01:25:46;;;;;;;10.57;2.65;;;;;;;19.27;98.11;99408.34;5022221;28;20049;-58
2021/06/21 01:28:56;;;;;;;9.52;2.53;;;;;;;19.21;97.30;99406.25;5016567;28;20135;-59
2021/06/21 01:31:49;;;;;;;5.20;2.10;;;;;;;19.27;95.54;99411.03;5015736;28;20649;-57
2021/06/21 01:34:17;;;;;;;11.98;2.25;;;;;;;19.37;94.20;99401.06;5024479;28;20703;-59
2021/06/21 01:36:48;;;;;;;11.82;2.45;;;;;;;19.42;93.23;99406.81;5020186;28;20149;-59
2021/06/21 01:39:15;;;;;;;10.00;2.40;;;;;;;19.43;93.10;99395.09;5020790;28;20061;-58
2021/06/21 01:41:45;;;;;;;10.00;2.83;;;;;;;19.43;93.18;99403.13;5024311;28;20061;-59
2021/06/21 01:44:14;;;;;;;9.75;2.28;;;;;;;19.47;93.30;99403.69;5022905;28;20049;-61
2021/06/21 01:46:41;;;;;;;12.60;3.23;;;;;;;19.47;92.23;99401.00;5027689;28;20056;-58
2021/06/21 01:49:24;;;;;;;9.68;2.10;;;;;;;19.45;91.95;99392.25;5019507;28;20489;-58
2021/06/21 01:51:56;;;;;;;7.70;2.40;;;;;;;19.40;91.61;99389.16;5017472;28;20365;-60
2021/06/21 01:54:26;;;;;;;9.82;2.20;;;;;;;19.39;92.27;99387.47;5024957;28;20136;-58
2021/06/21 01:56:53;;;;;;;9.97;2.47;;;;;;;19.37;91.88;99392.16;5033672;28;20068;-55
2021/06/21 01:59:23;;;;;;;7.97;2.15;;;;;;;19.35;91.89;99396.84;5024868;28;20041;-59
2021/06/21 02:01:51;;;;;;;9.80;2.30;;;;;;;19.34;92.28;99381.75;5024652;28;20064;-57
2021/06/21 02:04:19;;;;;;;7.80;2.60;;;;;;;19.32;91.95;99394.47;5002751;28;20052;-57
2021/06/21 02:06:47;;;;;;;9.77;2.58;;;;;;;19.30;91.85;99393.78;5025813;28;20049;-58
2021/06/21 02:09:14;;;;;;;7.90;2.40;;;;;;;19.27;91.75;99389.53;5016428;28;20053;-58
2021/06/21 02:11:41;;;;;;;7.30;2.15;;;;;;;19.26;91.91;99390.53;5014326;28;20509;-59
2021/06/21 02:14:07;;;;;;;8.32;2.20;;;;;;;19.25;91.72;99383.47;5019005;28;20051;-57
2021/06/21 02:16:36;;;;;;;14.07;2.67;;;;;;;19.26;91.66;99388.69;5014331;28;20053;-58
2021/06/21 02:19:03;;;;;;;10.07;2.45;;;;;;;19.26;91.31;99387.84;5022141;28;20133;-58
2021/06/21 02:21:29;;;;;;;7.00;2.63;;;;;;;19.28;91.43;99391.25;5018269;28;20096;-55
2021/06/21 02:30:19;;;;;;;9.13;2.80;;;;;;;19.19;91.19;99386.78;5021668;28;20412;-59
2021/06/21 02:32:47;;;;;;;8.93;2.35;;;;;;;19.15;91.20;99396.13;5018193;28;20053;-61
2021/06/21 02:35:15;;;;;;;13.15;3.13;;;;;;;19.07;91.25;99402.22;5020212;28;20056;-61
2021/06/21 02:37:43;;;;;;;12.45;3.10;;;;;;;19.12;92.34;99409.84;5019769;28;20072;-61
2021/06/21 02:40:12;;;;;;;7.43;2.63;;;;;;;19.15;92.34;99412.22;5014038;28;20052;-61
2021/06/21 02:42:39;;;;;;;8.60;2.28;;;;;;;19.14;91.34;99411.38;5021924;28;20128;-61
2021/06/21 02:45:07;;;;;;;10.80;3.08;;;;;;;19.15;90.96;99418.44;5020581;28;20049;-62
2021/06/21 02:47:35;;;;;;;11.48;3.10;;;;;;;19.16;90.76;99420.13;5025458;28;20049;-61
2021/06/21 02:50:04;;;;;;;10.90;2.45;;;;;;;19.15;90.48;99423.81;5014198;28;20038;-61
2021/06/21 02:52:53;;;;;;;13.90;2.70;;;;;;;19.10;90.28;99428.78;5022912;28;20048;-63
2021/06/21 02:55:23;;;;;;;6.90;2.47;;;;;;;19.09;90.26;99435.13;5021203;28;20061;-61
2021/06/21 02:58:07;;;;;;;10.25;2.75;;;;;;;19.08;89.68;99430.75;5018586;28;20057;-61
2021/06/21 03:00:37;;;;;;;7.25;2.20;;;;;;;19.07;90.30;99434.44;5021948;28;20511;-60
2021/06/21 03:03:09;;;;;;;10.27;2.78;;;;;;;19.11;90.09;99441.19;5024190;28;20045;-61
2021/06/21 03:05:38;;;;;;;15.18;3.33;;;;;;;19.12;89.62;99445.56;5020492;28;20052;-59
2021/06/21 03:08:08;;;;;;;12.20;2.90;;;;;;;19.11;89.95;99448.41;5030826;28;20056;-61
2021/06/21 03:10:36;;;;;;;;;;;;;;;19.11;89.64;99453.78;5027001;28;20049;-60
2021/06/21 03:13:03;;;;;;;8.13;2.70;;;;;;;19.10;90.01;99447.56;5020469;28;19963;-60
2021/06/21 03:15:30;;;;;;;10.77;2.30;;;;;;;19.12;89.66;99450.09;5030319;28;20053;-60
2021/06/21 03:18:03;;;;;;;15.30;3.03;;;;;;;19.12;89.77;99442.03;5030644;28;20053;-60
2021/06/21 03:20:30;;;;;;;13.60;3.03;;;;;;;19.11;89.86;99443.03;5015233;28;20049;-60
2021/06/21 03:23:01;;;;;;;8.27;2.35;;;;;;;19.09;89.99;99443.19;5017155;28;20055;-60
2021/06/21 03:25:30;;;;;;;11.20;2.88;;;;;;;19.11;89.94;99449.25;5014104;28;20484;-61
2021/06/21 03:28:05;;;;;;;14.05;3.67;;;;;;;19.07;89.51;99445.16;5011654;28;20785;-59
2021/06/21 03:30:32;;;;;;;8.95;3.03;;;;;;;19.01;90.16;99448.47;5036446;28;20049;-63
2021/06/21 03:32:58;;;;;;;9.30;2.67;;;;;;;19.02;90.20;99454.69;5039440;28;20057;-62
2021/06/21 03:35:27;;;;;;;13.38;2.97;;;;;;;19.03;90.36;99454.53;5041126;28;20132;-59
2021/06/21 03:37:54;;;;;;;9.57;3.00;;;;;;;19.02;89.87;99460.88;5032145;28;20045;-61
2021/06/21 03:40:21;;;;;;;12.90;3.22;;;;;;;19.05;90.34;99465.94;5038024;28;20515;-60
2021/06/21 03:42:48;;;;;;;10.00;2.85;;;;;;;19.18;90.65;99465.63;5033981;28;20049;-61
2021/06/21 03:45:14;;;;;;;12.35;2.78;;;;;;;19.29;89.76;99462.72;5037043;28;20072;-61
2021/06/21 03:47:41;;;;;;;13.13;3.22;;;;;;;19.37;89.27;99462.78;5038507;28;20557;-61
2021/06/21 03:50:09;;;;;;;16.90;2.90;;;;;;;19.43;88.15;99458.66;5041261;28;20061;-61
2021/06/21 03:52:36;;;;;;;12.68;3.00;;;;;;;19.48;87.16;99457.25;5040619;28;20120;-61
2021/06/21 03:55:06;;;;;;;8.38;2.70;;;;;;;19.54;86.55;99461.16;5033170;28;20773;-60
2021/06/21 03:57:35;;;;;;;10.23;2.97;;;;;;;19.63;86.05;99471.03;5038532;28;20685;-61
2021/06/21 04:00:05;;;;;;;28.05;5.32;;;;;;;19.71;84.63;99460.34;5036086;28;20171;-61
2021/06/21 04:02:31;;;;;;;18.17;4.05;;;;;;;19.77;84.79;99472.31;5036676;28;20045;-61
2021/06/21 04:04:58;;;;;;;12.60;3.47;;;;;;;19.85;84.58;99464.34;5033879;28;20112;-61
2021/06/21 04:07:24;;;;;;;10.98;2.35;;;;;;;19.89;83.69;99471.94;5036915;28;20054;-61
2021/06/21 04:09:51;;;;;;;17.88;3.05;;;;;;;19.88;83.28;99467.56;5033294;28;20041;-61
2021/06/21 04:12:17;;;;;;;8.50;2.30;;;;;;;19.90;83.14;99473.63;5033580;28;20052;-61
2021/06/21 04:14:44;;;;;;;10.32;2.97;;;;;;;19.95;82.80;99463.28;5033458;28;20053;-59
2021/06/21 04:17:10;;;;;;;13.57;2.60;;;;;;;19.91;81.90;99464.56;5035045;28;20051;-61
2021/06/21 04:19:37;;;;;;;26.27;4.05;;;;;;;19.94;82.57;99469.66;5034111;28;20494;-60
2021/06/21 04:22:03;;;;;;;10.25;2.60;;;;;;;19.99;81.45;99487.16;5029119;28;20174;-61
2021/06/21 04:24:30;;;;;;;11.45;2.65;;;;;;;20.03;81.40;99488.50;5034117;28;20057;-61
2021/06/21 04:26:56;;;;;;;9.48;1.73;;;;;;;20.09;80.67;99498.66;5031263;28;20054;-62
2021/06/21 04:29:23;;;;;;;10.00;2.50;;;;;;;20.07;80.77;99495.28;5027709;28;20411;-61
2021/06/21 04:31:50;;;;;;;8.07;2.20;;;;;;;20.05;81.35;99490.06;5029073;28;20051;-60
2021/06/21 04:34:18;;;;;;;10.10;2.53;;;;;;;20.02;80.62;99476.91;5031824;28;20111;-61
2021/06/21 04:36:44;;;;;;;8.20;2.42;;;;;;;20.00;81.82;99483.44;5034324;28;20059;-61
2021/06/21 04:39:11;;;;;;;11.55;2.40;;;;;;;20.08;81.17;99486.22;5034577;28;20597;-61
2021/06/21 04:41:37;;;;;;;7.05;2.50;;;;;;;20.15;80.44;99481.91;5034222;28;20048;-61
2021/06/21 04:44:04;;;;;;;11.75;2.17;;;;;;;20.19;80.36;99477.91;5035628;28;20415;-61
2021/06/21 04:46:33;;;;;;;11.52;2.50;;;;;;;20.23;80.33;99480.13;5033235;28;20565;-61
2021/06/21 04:49:01;;;;;;;8.65;2.42;;;;;;;20.27;80.02;99480.69;5042996;28;20132;-62
2021/06/21 04:51:31;;;;;;;7.45;2.00;;;;;;;20.27;79.50;99480.69;5040538;28;20060;-61
2021/06/21 04:53:58;;;;;;;8.27;2.28;;;;;;;20.25;79.61;99478.13;5033490;28;20084;-61
2021/06/21 04:56:25;;;;;;;12.55;2.17;;;;;;;20.26;79.92;99484.38;5038201;28;20064;-61
2021/06/21 04:58:51;;;;;;;7.95;2.70;;;;;;;20.23;79.26;99479.28;5033594;28;20594;-61
2021/06/21 05:01:18;;;;;;;10.90;2.10;;;;;;;20.15;80.08;99474.69;5042085;28;20049;-61
2021/06/21 05:03:44;;;;;;;12.00;2.78;;;;;;;20.20;79.80;99471.53;5040651;28;20048;-61
2021/06/21 05:06:11;;;;;;;8.82;2.15;;;;;;;20.28;79.94;99477.00;5037937;28;20132;-61
2021/06/21 05:08:38;;;;;;;11.82;2.47;;;;;;;20.34;78.83;99479.03;5034078;28;20063;-61
2021/06/21 05:11:04;;;;;;;7.28;2.00;;;;;;;20.43;79.00;99485.38;5040490;28;20049;-60
2021/06/21 05:13:31;;;;;;;8.30;2.30;;;;;;;20.53;78.04;99489.63;5040861;28;20068;-60
2021/06/21 05:15:57;;;;;;;11.30;3.03;;;;;;;20.54;78.00;99480.56;5037748;28;20049;-61
2021/06/21 05:18:24;;;;;;;7.90;2.50;;;;;;;20.60;77.78;99473.72;5037795;28;20571;-60
2021/06/21 05:20:50;;;;;;;6.65;2.47;;;;;;;20.61;77.41;99472.72;5038165;28;20185;-58
2021/06/21 05:23:17;;;;;;;7.80;2.40;;;;;;;20.58;78.04;99473.03;5032818;28;20056;-59
2021/06/21 05:32:06;;;;;;;9.55;2.30;;;;;;;20.48;77.85;99477.66;5002413;28;20041;-58
2021/06/21 05:34:33;;;;;;;11.05;2.78;;;;;;;20.46;77.67;99472.44;5001857;28;20061;-58
2021/06/21 05:37:00;;;;;;;8.48;2.38;;;;;;;20.48;76.81;99469.59;5000266;28;20057;-57
2021/06/21 05:39:27;;;;;;;5.82;1.95;;;;;;;20.50;76.81;99470.28;4995076;28;20046;-59
2021/06/21 05:41:53;;;;;;;8.30;1.83;;;;;;;20.48;76.82;99464.22;5000726;28;20056;-61
2021/06/21 05:44:20;;;;;;;10.13;2.20;;;;;;;20.56;76.46;99459.75;4991970;28;20046;-59
2021/06/21 05:46:47;;;;;;;6.80;1.88;;;;;;;20.63;75.37;99462.63;4997897;28;20045;-61
2021/06/21 05:49:14;;;;;;;11.32;2.20;;;;;;;20.66;74.88;99470.38;4994688;28;20065;-61
2021/06/21 05:51:40;;;;;;;6.22;1.90;;;;;;;20.65;75.43;99457.94;4992706;28;20092;-61
2021/06/21 05:54:07;;;;;;;8.32;2.00;;;;;;;20.71;74.77;99465.38;4996835;28;20062;-60
2021/06/21 05:56:34;;;;;;;6.15;1.80;;;;;;;20.70;74.60;99455.63;4995460;28;20141;-61
2021/06/21 05:59:00;;;;;;;8.55;1.58;;;;;;;20.73;74.66;99462.53;5000605;28;20398;-61
2021/06/21 06:01:28;;;;;;;4.80;1.60;;;;;;;20.78;74.00;99460.22;4984309;28;20050;-61
2021/06/21 06:03:54;;;;;;;5.75;2.00;;;;;;;20.87;74.86;99470.84;4995965;28;20062;-60
2021/06/21 06:06:21;;;;;;;9.32;2.03;;;;;;;21.08;73.54;99475.84;4997538;28;20056;-61
2021/06/21 06:08:48;;;;;;;5.78;2.10;;;;;;;21.23;72.63;99476.97;4992005;28;20061;-61
2021/06/21 06:11:14;;;;;;;4.28;1.50;;;;;;;21.51;71.85;99479.41;4995379;28;20500;-60
2021/06/21 06:13:41;;;;;;;4.95;1.58;;;;;;;21.94;69.91;99481.84;4994602;28;20050;-61
2021/06/21 06:16:12;;;;;;;8.13;1.75;;;;;;;22.40;69.03;99485.75;4994574;28;20056;-60
2021/06/21 06:18:39;;;;;;;9.95;1.90;;;;;;;22.91;66.74;99488.25;4995569;28;20053;-60
2021/06/21 06:21:05;;;;;;;7.55;1.73;;;;;;;23.32;64.44;99491.63;4998056;28;20065;-61
2021/06/21 06:23:37;;;;;;;5.85;1.70;;;;;;;23.47;64.26;99500.69;4997447;28;20054;-60
2021/06/21 06:26:04;;;;;;;7.60;1.80;;;;;;;23.72;63.81;99498.75;4993600;28;20050;-59
2021/06/21 06:28:31;;;;;;;19.27;3.63;;;;;;;23.76;63.65;99510.88;4984991;28;20050;-61
2021/06/21 06:30:57;;;;;;;15.38;2.85;;;;;;;23.38;64.38;99518.81;4995351;28;20077;-60
2021/06/21 06:33:24;;;;;;;11.68;2.75;;;;;;;23.06;65.91;99514.34;4993047;28;20054;-60
2021/06/21 06:35:50;;;;;;;5.85;2.00;;;;;;;22.93;65.41;99514.06;4993330;28;20425;-59
2021/06/21 06:38:17;;;;;;;11.85;2.15;;;;;;;22.83;67.13;99515.25;4989292;28;20054;-59
2021/06/21 06:40:43;;;;;;;7.55;2.15;;;;;;;22.66;67.15;99523.34;4994302;28;21071;-61
2021/06/21 06:43:10;;;;;;;8.30;2.25;;;;;;;22.54;68.40;99537.34;4990324;28;20042;-59
2021/06/21 06:45:36;;;;;;;10.23;2.65;;;;;;;22.41;68.55;99532.47;4992361;28;20266;-60
2021/06/21 06:48:03;;;;;;;5.88;1.80;;;;;;;22.32;67.52;99536.19;4981864;28;20072;-58
2021/06/21 06:50:30;;;;;;;8.05;2.00;;;;;;;22.31;67.31;99529.09;4987509;28;20074;-63
2021/06/21 06:53:01;;;;;;;9.38;2.47;;;;;;;22.24;68.25;99536.16;4993365;28;20046;-58
2021/06/21 06:58:13;;;;;;;11.10;2.17;;;;;;;22.38;68.44;99536.34;4989894;28;20060;-60
2021/06/21 07:00:39;;;;;;;6.25;2.35;;;;;;;22.75;68.32;99532.28;4993557;28;20064;-61
2021/06/21 07:03:08;;;;;;;8.38;2.97;;;;;;;23.35;66.18;99535.34;4982795;28;20464;-63
2021/06/21 07:05:35;;;;;;;12.45;1.98;;;;;;;23.93;62.96;99535.94;4982253;28;20058;-61
2021/06/21 07:08:02;;;;;;;11.07;2.15;;;;;;;24.14;60.69;99537.00;4976620;28;20054;-55
2021/06/21 07:10:30;;;;;;;12.23;2.42;;;;;;;24.26;60.93;99542.84;4983458;28;20127;-61
2021/06/21 07:12:56;;;;;;;5.85;1.63;;;;;;;24.33;60.05;99551.94;4998161;28;20056;-60
2021/06/21 07:15:23;;;;;;;7.80;2.33;;;;;;;24.05;60.36;99543.50;4994134;28;20147;-58
2021/06/21 07:17:51;;;;;;;7.95;2.28;;;;;;;23.87;61.79;99542.06;5003321;28;21008;-60
2021/06/21 07:20:18;;;;;;;6.32;2.00;;;;;;;23.82;61.68;99556.13;5000619;28;20080;-58
2021/06/21 07:22:44;;;;;;;6.15;1.75;;;;;;;23.68;60.67;99556.88;4999024;28;20038;-62
2021/06/21 07:25:11;;;;;;;7.40;1.70;;;;;;;23.85;61.04;99547.66;5001538;28;20534;-60
2021/06/21 07:27:38;;;;;;;4.75;1.67;;;;;;;24.16;58.99;99546.78;4990047;28;20049;-60
2021/06/21 07:30:05;;;;;;;4.65;1.23;;;;;;;24.21;58.75;99549.81;4996310;28;20091;-63
2021/06/21 07:32:32;;;;;;;6.72;1.65;;;;;;;24.12;58.93;99539.03;4995638;28;20092;-60
2021/06/21 07:34:59;;;;;;;7.70;1.48;;;;;;;23.98;58.13;99547.91;4980192;28;20181;-60
2021/06/21 07:37:26;;;;;;;5.80;1.50;;;;;;;24.08;59.59;99551.22;5000510;28;20050;-62
2021/06/21 07:39:52;;;;;;;5.68;1.80;;;;;;;24.12;58.31;99549.00;4998266;28;20050;-59
2021/06/21 07:42:19;;;;;;;7.10;1.58;;;;;;;23.96;57.76;99554.50;4994039;28;20543;-61
2021/06/21 07:44:45;;;;;;;2.67;1.23;;;;;;;23.88;58.21;99554.59;4987292;28;20053;-62
2021/06/21 07:47:12;;;;;;;8.40;1.98;;;;;;;23.88;58.70;99555.41;4988416;28;20054;-59
2021/06/21 07:49:38;;;;;;;4.88;1.52;;;;;;;23.69;59.27;99556.69;4995145;28;20082;-63
2021/06/21 07:52:05;;;;;;;4.30;1.77;;;;;;;23.72;60.18;99558.22;4990190;28;20042;-63
2021/06/21 07:54:32;;;;;;;5.60;1.80;;;;;;;23.96;59.69;99547.25;4992304;28;20070;-60
2021/06/21 07:56:59;;;;;;;7.00;1.73;;;;;;;23.95;58.98;99548.25;4994996;28;20415;-59
2021/06/21 07:59:25;;;;;;;5.82;1.30;;;;;;;24.04;57.77;99544.50;5000824;28;20049;-60
2021/06/21 08:01:52;;;;;;;6.03;1.50;;;;;;;24.37;57.13;99542.44;4994650;28;20050;-62
2021/06/21 08:04:19;;;;;;;8.38;1.75;;;;;;;24.74;55.60;99543.47;4992462;28;20066;-63
2021/06/21 08:06:45;;;;;;;5.68;1.75;;;;;;;24.85;55.59;99545.75;4995310;28;20466;-62
2021/06/21 08:09:12;;;;;;;4.80;1.65;;;;;;;24.92;55.65;99552.09;4993778;28;20060;-61
2021/06/21 08:11:38;;;;;;;5.70;1.73;;;;;;;24.88;54.60;99555.34;4993136;28;20050;-59
2021/06/21 08:14:05;;;;;;;4.22;1.75;;;;;;;24.71;54.70;99550.09;4994976;28;20137;-61
2021/06/21 08:16:32;;;;;;;6.90;2.53;;;;;;;24.57;55.45;99555.47;4983671;28;20077;-61
2021/06/21 08:18:59;;;;;;;8.00;1.92;;;;;;;24.55;56.60;99549.41;4986568;28;20047;-58
2021/06/21 08:21:25;;;;;;;9.18;1.70;;;;;;;24.64;55.66;99545.59;4990681;28;20054;-62
2021/06/21 08:23:53;;;;;;;7.22;1.70;;;;;;;24.79;55.22;99547.31;4992710;28;20469;-59
2021/06/21 08:26:19;;;;;;;6.05;1.70;;;;;;;25.20;54.75;99555.03;4984258;28;20041;-62
2021/06/21 08:28:46;;;;;;;3.45;1.73;;;;;;;25.26;53.36;99554.31;4995197;28;20054;-63
2021/06/21 08:31:13;;;;;;;4.80;1.30;;;;;;;25.37;52.68;99550.28;5000399;28;20053;-62
2021/06/21 08:33:39;;;;;;;4.13;1.20;;;;;;;25.58;52.22;99552.25;5008604;28;20073;-62
2021/06/21 08:36:06;;;;;;;2.78;1.20;;;;;;;25.69;51.85;99549.06;5013144;28;20053;-61
2021/06/21 08:38:35;;;;;;;5.38;1.40;;;;;;;25.62;51.58;99548.16;5014925;28;20042;-60
2021/06/21 08:41:06;;;;;;;4.00;1.38;;;;;;;25.38;51.38;99552.81;5012274;28;20114;-60
2021/06/21 08:43:33;;;;;;;4.22;1.90;;;;;;;25.34;51.52;99554.19;5017147;28;20076;-59
2021/06/21 08:46:00;;;;;;;6.13;1.33;;;;;;;25.21;52.15;99554.03;5016325;28;20046;-65
2021/06/21 08:48:30;;;;;;;3.72;1.30;;;;;;;25.06;52.99;99553.16;5014477;28;20051;-61
2021/06/21 08:51:01;;;;;;;2.95;1.42;;;;;;;25.03;52.50;99554.38;5015907;28;20046;-60
2021/06/21 08:53:27;;;;;;;5.25;1.45;;;;;;;25.03;53.00;99562.50;5006870;28;20497;-60
2021/06/21 08:55:54;;;;;;;4.13;1.65;;;;;;;25.27;52.42;99550.56;5002798;28;20125;-59
2021/06/21 08:58:21;;;;;;;3.90;1.55;;;;;;;25.34;52.13;99566.94;4998212;28;20054;-66
2021/06/21 09:00:48;;;;;;;6.95;1.83;;;;;;;25.12;52.35;99561.41;5005098;28;20056;-62
2021/06/21 09:03:17;;;;;;;3.92;1.52;;;;;;;25.02;50.92;99566.28;5002201;28;20050;-60
2021/06/21 09:05:44;;;;;;;;;;;;;;;25.15;51.35;99565.63;5001397;28;20056;-60
2021/06/21 09:08:11;;;;;;;6.32;1.38;;;;;;;25.28;50.93;99568.53;5002050;28;19929;-61
2021/06/21 09:10:39;;;;;;;4.22;1.40;;;;;;;25.16;50.22;99578.13;4997647;28;20143;-58
2021/06/21 09:13:10;;;;;;;3.13;1.60;;;;;;;24.89;51.38;99576.84;5002795;28;20048;-59
2021/06/21 09:15:41;;;;;;;3.10;1.70;;;;;;;24.69;52.87;99573.81;5006340;28;20133;-58
2021/06/21 09:18:26;;;;;;;7.03;1.70;;;;;;;24.59;52.55;99573.22;4984032;28;20054;-60
2021/06/21 09:21:26;;;;;;;3.95;1.40;;;;;;;24.52;53.69;99569.56;5001259;28;20049;-61
2021/06/21 09:24:23;;;;;;;4.55;1.52;;;;;;;24.50;53.66;99581.59;4999503;28;20108;-60
2021/06/21 09:26:59;;;;;;;3.25;1.40;;;;;;;24.39;53.61;99570.19;4976427;28;20089;-58
2021/06/21 09:29:40;;;;;;;4.72;1.60;;;;;;;24.53;53.19;99576.66;4996107;28;20054;-60
2021/06/21 09:32:45;;;;;;;3.88;1.75;;;;;;;24.76;53.20;99576.63;5014574;28;20060;-58
2021/06/21 09:35:32;;;;;;;8.43;2.03;;;;;;;24.78;52.85;99586.25;5018830;28;21908;-60
2021/06/21 09:38:01;;;;;;;5.18;2.22;;;;;;;24.57;52.15;99583.38;5016184;28;20060;-60
2021/06/21 09:40:39;;;;;;;4.72;2.00;;;;;;;24.59;52.07;99592.16;5020991;28;20045;-60
2021/06/21 09:43:25;;;;;;;7.93;2.50;;;;;;;24.72;51.17;99589.69;5020669;28;20134;-59
2021/06/21 09:46:13;;;;;;;3.35;1.85;;;;;;;24.77;52.36;99592.69;5018696;28;20050;-58
2021/06/21 09:48:46;;;;;;;3.22;2.28;;;;;;;24.75;50.93;99592.03;5021450;28;20893;-58
2021/06/21 09:51:30;;;;;;;3.10;2.03;;;;;;;24.60;51.73;99609.25;5023249;28;20092;-61
2021/06/21 09:54:10;;;;;;;4.57;2.00;;;;;;;24.50;51.48;99593.25;5023143;28;20059;-60
2021/06/21 09:56:38;;;;;;;6.80;2.50;;;;;;;24.69;52.10;99595.47;5022130;28;20786;-57
2021/06/21 09:59:17;;;;;;;3.38;2.00;;;;;;;25.01;51.72;99598.94;5021677;28;20056;-60
2021/06/21 10:01:44;;;;;;;4.82;2.40;;;;;;;25.17;50.77;99594.22;5019166;28;20064;-58
2021/06/21 10:04:23;;;;;;;4.32;2.10;;;;;;;;;;5021705;28;20052;-60
2021/06/21 10:06:50;;;;;;;4.38;1.77;;;;;;;25.14;50.91;99610.00;5017781;28;20103;-59
2021/06/21 10:09:16;;;;;;;7.00;2.13;;;;;;;25.07;51.45;99609.03;5017462;28;20087;-58
2021/06/21 10:11:45;;;;;;;5.22;2.17;;;;;;;25.11;50.93;99605.78;5022874;28;20139;-59
2021/06/21 10:14:19;;;;;;;4.25;2.13;;;;;;;25.15;51.06;99603.56;5019536;28;20481;-61
2021/06/21 10:16:51;;;;;;;5.32;2.50;;;;;;;25.03;51.22;99613.97;5015506;28;20497;-60
2021/06/21 10:19:19;;;;;;;4.10;1.80;;;;;;;25.11;51.15;99602.22;5020658;28;20041;-57
2021/06/21 10:21:53;;;;;;;4.28;2.58;;;;;;;25.10;51.84;99597.84;5034909;28;20722;-61
2021/06/21 10:24:19;;;;;;;6.00;2.05;;;;;;;25.18;51.62;99608.59;5028985;28;20083;-59
2021/06/21 10:26:49;;;;;;;3.70;1.70;;;;;;;25.47;51.23;99611.34;5034264;28;20053;-60
2021/06/21 10:29:20;;;;;;;4.40;2.38;;;;;;;25.69;49.74;99606.00;5003893;28;20057;-60
2021/06/21 10:31:47;;;;;;;6.38;2.10;;;;;;;25.76;50.07;99609.66;5019361;28;20145;-59
2021/06/21 10:34:16;;;;;;;4.57;1.88;;;;;;;25.67;50.56;99613.50;5021745;28;20397;-60
2021/06/21 10:36:46;;;;;;;3.50;2.20;;;;;;;25.49;51.35;99617.41;5018532;28;20056;-61
2021/06/21 10:39:24;;;;;;;5.78;2.40;;;;;;;25.47;50.48;99615.91;5020389;28;20048;-61
2021/06/21 10:42:08;;;;;;;4.03;2.10;;;;;;;25.36;51.32;99622.63;5016063;28;20062;-60
2021/06/21 10:44:55;;;;;;;4.63;2.17;;;;;;;25.44;51.41;99627.97;5019217;28;20057;-61
2021/06/21 10:47:39;;;;;;;6.72;2.10;;;;;;;25.52;50.81;99618.88;5017307;28;20045;-61
2021/06/21 10:50:21;;;;;;;4.88;2.30;;;;;;;25.65;49.75;99615.56;5021930;28;20138;-61
2021/06/21 10:52:48;;;;;;;3.35;2.03;;;;;;;25.73;49.58;99621.72;5019305;28;20544;-59
2021/06/21 10:58:03;;;;;;;5.72;1.90;;;;;;;25.89;49.88;99625.25;5014544;28;20587;-56
2021/06/21 11:00:29;;;;;;;7.35;2.00;;;;;;;26.05;50.09;99619.63;5034167;28;20053;-59
2021/06/21 11:03:22;;;;;;;4.25;1.77;;;;;;;26.02;49.17;99623.56;5011413;28;20057;-62
2021/06/21 11:05:55;;;;;;;3.88;2.30;;;;;;;25.97;49.46;99623.31;5016379;28;20049;-59
2021/06/21 11:08:23;;;;;;;5.10;2.28;;;;;;;25.87;49.13;99620.03;5013141;28;20062;-58
2021/06/21 11:10:55;;;;;;;3.80;1.98;;;;;;;25.89;49.03;99631.53;5012269;28;20075;-60
2021/06/21 11:13:36;;;;;;;4.28;2.10;;;;;;;26.03;47.32;99627.13;5015185;28;20053;-61
2021/06/21 11:16:22;;;;;;;4.68;2.38;;;;;;;26.00;48.55;99622.91;5000984;28;20053;-63
2021/06/21 11:19:20;;;;;;;3.53;2.17;;;;;;;25.81;48.80;99639.78;4997457;28;20464;-59
2021/06/21 11:21:56;;;;;;;4.22;2.30;;;;;;;25.86;48.48;99637.31;5007884;28;20953;-58
2021/06/21 11:24:35;;;;;;;4.53;2.67;;;;;;;25.69;48.17;99633.13;5012737;28;20049;-55
2021/06/21 11:27:12;;;;;;;6.65;2.95;;;;;;;25.56;47.84;99644.59;5015072;28;20045;-58
2021/06/21 11:29:43;;;;;;;4.43;2.28;;;;;;;25.40;47.97;99644.78;5018203;28;20061;-59
2021/06/21 11:32:11;;;;;;;3.97;2.05;;;;;;;25.54;47.32;99627.69;5015646;28;20161;-61
2021/06/21 11:34:53;;;;;;;4.22;2.10;;;;;;;25.77;47.08;99642.03;5015135;28;20061;-60
2021/06/21 11:37:40;;;;;;;6.22;2.42;;;;;;;26.08;46.25;99644.50;5021812;28;20053;-58
2021/06/21 11:40:13;;;;;;;4.93;2.30;;;;;;;26.23;45.82;99641.75;5018200;28;20405;-59
2021/06/21 11:42:40;;;;;;;3.58;2.20;;;;;;;26.33;45.77;99641.47;5018699;28;20568;-60
2021/06/21 11:45:07;;;;;;;5.53;2.53;;;;;;;26.21;45.65;99644.66;5018434;28;20053;-60
2021/06/21 11:47:35;;;;;;;2.42;2.13;;;;;;;26.33;45.99;99627.91;5015985;28;20052;-58
2021/06/21 11:50:15;;;;;;;3.45;2.25;;;;;;;26.34;45.40;99641.28;5014620;28;20053;-61
2021/06/21 11:52:46;;;;;;;4.15;2.05;;;;;;;26.44;44.64;99632.84;5018260;28;20065;-61
2021/06/21 11:55:16;;;;;;;4.20;2.10;;;;;;;26.46;43.85;99630.75;5019180;28;20045;-60
2021/06/21 11:57:44;;;;;;;4.05;1.88;;;;;;;26.50;43.58;99629.34;5016864;28;20807;-57
2021/06/21 12:00:11;;;;;;;4.50;1.85;;;;;;;26.61;43.65;99636.13;5017043;28;20147;-60
2021/06/21 12:02:38;;;;;;;3.20;1.63;;;;;;;26.65;42.86;99627.41;5019967;28;20045;-58